Hollenberg, Kansas
Current Conditions -  °F | °C
As of 5:15 PM on Saturday 25 Oct 2014 (Local Time) from KMYZ Reporting Station
Clear Clear  
Wind Chill: 77°   Ceiling: Unl
Heat Index: 78°   Visibility: 10mi
Dew Point: 54°   Wind: 6mph
Humidity: 44%   Direction: 100°E
Pressure: 30.01"   Gusts: NA
Location:  39.98°N, 96.99°W
Report Text: KMYZ 252215Z AUTO 10005KT 10SM CLR 25/12 A3001 RMK AO2
Loading
Personal Weather Stations






























Interactive Weather Map
Tropical Storm Tracking
New forecast layout! Learn more

10-Day Weather Forecast

Advertisements
Track Severe Weather on mobile